• Join FlightAware (Why Join?)
  • Login
  • US Flag 
02:15AM EDT


 

Airport Tracker/Info


-or-


 

Live Flight TrackerFlight Track Log ✈ KAP29 ✈ 15-Jun-2013 ✈ KBOS - KSLK

Flight Track Log - Related Links

Times and Time Zones

All times are in EDT time to prevent confusion due to time zone crossing. See the KAP29 flight status page for this flight to view local times or setup timezone preferences in your user account.

Time Position Orientation Groundspeed Altitude Reporting Facility
EDT Latitude Longitude Course Direction KTS MPH feet Rate Location/Type
05:42PM 42.3833 -71.0167 340° North 104 120 500  Level KA90
05:43PM 42.4167 -71.0333 340° North 119 137 1,600 900 Climbing KA90
05:44PM 42.4500 -71.0500 340° North 121 139 2,400 600 Climbing KA90
05:45PM 42.4833 -71.0667 340° North 123 142 2,800 420 Climbing KA90
05:46PM 42.5000 -71.0833 324° Northwest 122 140 3,300 420 Climbing KA90
05:47PM 42.5333 -71.1000 340° North 118 136 3,700 480 Climbing KA90
05:48PM 42.5667 -71.1167 340° North 121 139 4,300 480 Climbing KA90
05:49PM 42.6000 -71.1333 340° North 126 145 4,700 480 Climbing KA90
05:50PM 42.6333 -71.1500 340° North 124 143 5,300 420 Climbing KA90
05:51PM 42.6667 -71.1667 340° North 129 148 5,800 420 Climbing KA90
05:52PM 42.7000 -71.2000 324° Northwest 121 139 6,300 480 Climbing KA90
05:53PM 42.7167 -71.2333 304° West 120 138 6,800 420 Climbing KA90
05:54PM 42.7333 -71.2667 304° West 124 143 7,200 420 Climbing KA90
05:55PM 42.7667 -71.3000 324° Northwest 125 144 7,700 360 Climbing KA90
05:56PM 42.8000 -71.3333 324° Northwest 132 152 8,000 120 Climbing KA90
05:57PM 42.8167 -71.3833 294° West 149 171 8,000  Level KA90
05:58PM 42.8500 -71.4167 324° Northwest 157 181 8,000  Level KA90
05:59PM 42.8833 -71.4667 312° West 154 177 8,000  Level KA90
06:00PM 42.9167 -71.5000 324° Northwest 157 181 8,000  Level KA90
06:01PM 42.9500 -71.5500 312° West 154 177 8,100  Climbing KA90
06:02PM 42.9667 -71.5833 304° West 148 170 8,100  Level KA90
06:04PM 43.0144 -71.6536 313° West 142 163 8,100  Level Boston Center
06:05PM 43.0461 -71.6958 316° Northwest 142 163 8,100  Level Boston Center
06:06PM 43.0778 -71.7467 310° West 142 163 8,200  Climbing Boston Center
06:07PM 43.1050 -71.7833 315° West 142 163 8,100 -60 Descending Boston Center
06:08PM 43.1344 -71.8228 316° Northwest 142 163 8,100  Level Boston Center
06:09PM 43.1617 -71.8594 316° Northwest 147 169 8,100  Level Boston Center
06:10PM 43.1889 -71.8992 313° West 147 169 8,200  Climbing Boston Center
06:11PM 43.2206 -71.9444 314° West 142 163 8,100 -60 Descending Boston Center
06:12PM 43.2519 -71.9897 314° West 142 163 8,100  Level Boston Center
06:13PM 43.2769 -72.0236 315° West 142 163 8,100  Level Boston Center
06:14PM 43.3064 -72.0664 313° West 142 163 8,100  Level Boston Center
06:15PM 43.3314 -72.1003 315° West 142 163 8,100  Level Boston Center
06:16PM 43.3608 -72.1461 311° West 136 157 8,100  Level Boston Center
06:17PM 43.3858 -72.1800 315° West 141 162 8,100  Level Boston Center
06:18PM 43.4150 -72.2200 315° West 141 162 8,100  Level Boston Center
06:19PM 43.4422 -72.2600 313° West 141 162 8,100  Level Boston Center
06:20PM 43.4694 -72.2969 315° West 141 162 8,100  Level Boston Center
06:21PM 43.5028 -72.3456 313° West 141 162 8,100  Level Boston Center
06:22PM 43.5300 -72.3856 313° West 141 162 8,200  Climbing Boston Center
06:23PM 43.5569 -72.4258 313° West 141 162 8,100 -60 Descending Boston Center
06:24PM 43.5842 -72.4631 315° West 141 162 8,100  Level Boston Center
06:25PM 43.6133 -72.5061 313° West 146 168 8,100  Level Boston Center
06:26PM 43.6383 -72.5461 311° West 146 168 8,100  Level Boston Center
06:27PM 43.6611 -72.5922 304° West 141 162 8,100  Level Boston Center
06:28PM 43.6881 -72.6411 307° West 141 162 8,100  Level Boston Center
06:29PM 43.7067 -72.6928 297° West 146 168 8,100  Level Boston Center
06:30PM 43.7275 -72.7389 302° West 151 174 8,100  Level Boston Center
06:31PM 43.7483 -72.7906 299° West 151 174 8,100  Level Boston Center
06:32PM 43.7711 -72.8369 304° West 151 174 8,100  Level Boston Center
06:33PM 43.7917 -72.8831 302° West 151 174 8,100  Level Boston Center
06:34PM 43.8122 -72.9264 303° West 146 168 8,100  Level Boston Center
06:35PM 43.8331 -72.9753 301° West 141 162 8,100  Level Boston Center
06:36PM 43.8556 -73.0217 304° West 141 162 8,100  Level Boston Center
06:37PM 43.8783 -73.0681 304° West 146 168 8,100  Level Boston Center
06:38PM 43.8989 -73.1172 300° West 146 168 8,100  Level Boston Center
06:39PM 43.9214 -73.1664 302° West 146 168 8,100  Level Boston Center
06:40PM 43.9461 -73.2214 302° West 151 174 8,100  Level Boston Center
06:41PM 43.9667 -73.2708 300° West 151 174 8,100  Level Boston Center
06:43PM 43.9892 -73.3203 302° West 156 180 8,100  Level Boston Center
06:44PM 44.0178 -73.3811 303° West 163 188 8,100  Level Boston Center
06:45PM 44.0425 -73.4308 305° West 163 188 8,100  Level Boston Center
06:46PM 44.0650 -73.4861 300° West 163 188 8,100  Level Boston Center
06:47PM 44.0872 -73.5414 299° West 163 188 8,100  Level Boston Center
06:48PM 44.1117 -73.5908 305° West 163 188 8,100  Level Boston Center
06:49PM 44.1364 -73.6406 305° West 163 188 8,100  Level Boston Center
06:50PM 44.1567 -73.6931 298° West 163 188 8,100 -300 Level Boston Center
06:51PM 44.1767 -73.7483 297° West 163 188 7,500 -600 Descending Boston Center
06:52PM 44.2011 -73.8011 303° West 158 182 6,900 -480 Descending Boston Center
06:53PM 44.2214 -73.8481 301° West 158 182 6,600 -300 Descending Boston Center
06:55PM 44.2562 -73.9298 303° West  Level FlightAware Approximate